sensor_id;sensor_type;location;lat;lon;timestamp;temperature;humidity
25622;DHT22;13487;39.360;22.962;2022-08-18T00:02:13;26.70;99.90
25622;DHT22;13487;39.360;22.962;2022-08-18T00:04:40;26.60;99.90
25622;DHT22;13487;39.360;22.962;2022-08-18T00:07:13;26.60;99.90
25622;DHT22;13487;39.360;22.962;2022-08-18T00:09:41;26.60;99.90
25622;DHT22;13487;39.360;22.962;2022-08-18T00:12:38;26.40;99.90
25622;DHT22;13487;39.360;22.962;2022-08-18T00:15:07;26.30;99.90
25622;DHT22;13487;39.360;22.962;2022-08-18T00:17:34;26.40;99.90
25622;DHT22;13487;39.360;22.962;2022-08-18T00:20:01;26.40;99.90
25622;DHT22;13487;39.360;22.962;2022-08-18T00:22:27;26.40;99.90
25622;DHT22;13487;39.360;22.962;2022-08-18T00:24:54;26.40;99.90
25622;DHT22;13487;39.360;22.962;2022-08-18T00:27:29;26.50;99.90
25622;DHT22;13487;39.360;22.962;2022-08-18T00:29:58;26.40;99.90
25622;DHT22;13487;39.360;22.962;2022-08-18T00:32:29;26.40;99.90
25622;DHT22;13487;39.360;22.962;2022-08-18T00:37:32;26.30;99.90
25622;DHT22;13487;39.360;22.962;2022-08-18T00:39:58;26.40;99.90
25622;DHT22;13487;39.360;22.962;2022-08-18T00:42:28;26.20;99.90
25622;DHT22;13487;39.360;22.962;2022-08-18T00:44:55;26.10;99.90
25622;DHT22;13487;39.360;22.962;2022-08-18T00:47:21;26.00;99.90
25622;DHT22;13487;39.360;22.962;2022-08-18T00:49:49;26.00;99.90
25622;DHT22;13487;39.360;22.962;2022-08-18T00:52:16;26.00;99.90
25622;DHT22;13487;39.360;22.962;2022-08-18T00:54:45;26.00;99.90
25622;DHT22;13487;39.360;22.962;2022-08-18T00:57:12;26.00;99.90
25622;DHT22;13487;39.360;22.962;2022-08-18T00:59:45;26.00;99.90
25622;DHT22;13487;39.360;22.962;2022-08-18T01:02:18;26.00;99.90
25622;DHT22;13487;39.360;22.962;2022-08-18T01:04:53;26.00;99.90
25622;DHT22;13487;39.360;22.962;2022-08-18T01:07:27;26.00;99.90
25622;DHT22;13487;39.360;22.962;2022-08-18T01:09:55;26.00;99.90
25622;DHT22;13487;39.360;22.962;2022-08-18T01:12:27;26.20;99.90
25622;DHT22;13487;39.360;22.962;2022-08-18T01:14:53;26.30;99.90
25622;DHT22;13487;39.360;22.962;2022-08-18T01:17:21;26.10;99.90
25622;DHT22;13487;39.360;22.962;2022-08-18T01:20:06;25.80;99.90
25622;DHT22;13487;39.360;22.962;2022-08-18T01:23:11;25.80;99.90
25622;DHT22;13487;39.360;22.962;2022-08-18T01:25:38;25.80;99.90
25622;DHT22;13487;39.360;22.962;2022-08-18T01:28:23;25.70;99.90
25622;DHT22;13487;39.360;22.962;2022-08-18T01:30:51;25.60;99.90
25622;DHT22;13487;39.360;22.962;2022-08-18T01:33:20;25.50;99.90
25622;DHT22;13487;39.360;22.962;2022-08-18T01:35:47;25.60;99.90
25622;DHT22;13487;39.360;22.962;2022-08-18T01:38:18;25.70;99.90
25622;DHT22;13487;39.360;22.962;2022-08-18T01:40:45;25.80;99.90
25622;DHT22;13487;39.360;22.962;2022-08-18T01:43:12;25.70;99.90
25622;DHT22;13487;39.360;22.962;2022-08-18T01:45:39;25.80;99.90
25622;DHT22;13487;39.360;22.962;2022-08-18T01:48:05;25.80;99.90
25622;DHT22;13487;39.360;22.962;2022-08-18T01:50:31;25.80;99.90
25622;DHT22;13487;39.360;22.962;2022-08-18T01:53:02;25.70;99.90
25622;DHT22;13487;39.360;22.962;2022-08-18T01:55:34;25.70;99.90
25622;DHT22;13487;39.360;22.962;2022-08-18T01:58:00;25.70;99.90
25622;DHT22;13487;39.360;22.962;2022-08-18T02:00:27;25.70;99.90
25622;DHT22;13487;39.360;22.962;2022-08-18T02:02:57;25.60;99.90
25622;DHT22;13487;39.360;22.962;2022-08-18T02:05:40;25.60;99.90
25622;DHT22;13487;39.360;22.962;2022-08-18T02:08:08;25.60;99.90
25622;DHT22;13487;39.360;22.962;2022-08-18T02:10:34;25.50;99.90
25622;DHT22;13487;39.360;22.962;2022-08-18T02:12:59;25.40;99.90
25622;DHT22;13487;39.360;22.962;2022-08-18T02:15:25;25.50;99.90
25622;DHT22;13487;39.360;22.962;2022-08-18T02:17:52;25.60;99.90
25622;DHT22;13487;39.360;22.962;2022-08-18T02:20:19;25.60;99.90
25622;DHT22;13487;39.360;22.962;2022-08-18T02:22:46;25.60;99.90
25622;DHT22;13487;39.360;22.962;2022-08-18T02:25:12;25.60;99.90
25622;DHT22;13487;39.360;22.962;2022-08-18T02:27:38;25.60;99.90
25622;DHT22;13487;39.360;22.962;2022-08-18T02:30:08;25.50;99.90
25622;DHT22;13487;39.360;22.962;2022-08-18T02:32:35;25.40;99.90
25622;DHT22;13487;39.360;22.962;2022-08-18T02:35:01;25.40;99.90
25622;DHT22;13487;39.360;22.962;2022-08-18T02:37:26;25.40;99.90
25622;DHT22;13487;39.360;22.962;2022-08-18T02:39:52;25.30;99.90
25622;DHT22;13487;39.360;22.962;2022-08-18T02:42:18;25.40;99.90
25622;DHT22;13487;39.360;22.962;2022-08-18T02:44:44;25.40;99.90
25622;DHT22;13487;39.360;22.962;2022-08-18T02:47:10;25.40;99.90
25622;DHT22;13487;39.360;22.962;2022-08-18T02:49:36;25.30;99.90
25622;DHT22;13487;39.360;22.962;2022-08-18T02:52:02;25.30;99.90
25622;DHT22;13487;39.360;22.962;2022-08-18T02:54:28;25.20;99.90
25622;DHT22;13487;39.360;22.962;2022-08-18T02:56:54;25.20;99.90
25622;DHT22;13487;39.360;22.962;2022-08-18T02:59:24;25.30;99.90
25622;DHT22;13487;39.360;22.962;2022-08-18T03:01:53;25.40;99.90
25622;DHT22;13487;39.360;22.962;2022-08-18T03:04:27;25.40;99.90
25622;DHT22;13487;39.360;22.962;2022-08-18T03:06:54;25.50;99.90
25622;DHT22;13487;39.360;22.962;2022-08-18T03:09:21;25.60;99.90
25622;DHT22;13487;39.360;22.962;2022-08-18T03:11:47;25.50;99.90
25622;DHT22;13487;39.360;22.962;2022-08-18T03:14:14;25.50;99.90
25622;DHT22;13487;39.360;22.962;2022-08-18T03:16:45;25.50;99.90
25622;DHT22;13487;39.360;22.962;2022-08-18T03:19:13;25.60;99.90
25622;DHT22;13487;39.360;22.962;2022-08-18T03:21:45;25.70;99.90
25622;DHT22;13487;39.360;22.962;2022-08-18T03:24:12;25.80;99.90
25622;DHT22;13487;39.360;22.962;2022-08-18T03:26:43;25.80;99.90
25622;DHT22;13487;39.360;22.962;2022-08-18T03:29:10;25.80;99.90
25622;DHT22;13487;39.360;22.962;2022-08-18T03:31:36;25.70;99.90
25622;DHT22;13487;39.360;22.962;2022-08-18T03:34:06;25.80;99.90
25622;DHT22;13487;39.360;22.962;2022-08-18T03:36:34;25.80;99.90
25622;DHT22;13487;39.360;22.962;2022-08-18T03:39:08;25.90;99.90
25622;DHT22;13487;39.360;22.962;2022-08-18T03:41:37;25.90;99.90
25622;DHT22;13487;39.360;22.962;2022-08-18T03:44:04;25.80;99.90
25622;DHT22;13487;39.360;22.962;2022-08-18T03:46:31;25.90;99.90
25622;DHT22;13487;39.360;22.962;2022-08-18T03:48:57;26.00;99.90
25622;DHT22;13487;39.360;22.962;2022-08-18T03:51:26;26.00;99.90
25622;DHT22;13487;39.360;22.962;2022-08-18T03:53:55;26.00;99.90
25622;DHT22;13487;39.360;22.962;2022-08-18T03:56:23;26.10;99.90
25622;DHT22;13487;39.360;22.962;2022-08-18T03:58:52;26.20;99.90
25622;DHT22;13487;39.360;22.962;2022-08-18T04:01:21;26.20;99.90
25622;DHT22;13487;39.360;22.962;2022-08-18T04:03:50;26.40;99.90
25622;DHT22;13487;39.360;22.962;2022-08-18T04:06:21;26.40;99.90
25622;DHT22;13487;39.360;22.962;2022-08-18T04:08:51;26.40;99.90
25622;DHT22;13487;39.360;22.962;2022-08-18T04:11:17;26.40;99.90
25622;DHT22;13487;39.360;22.962;2022-08-18T04:13:42;26.50;99.90
25622;DHT22;13487;39.360;22.962;2022-08-18T04:16:09;26.60;99.90
25622;DHT22;13487;39.360;22.962;2022-08-18T04:18:35;26.60;99.90
25622;DHT22;13487;39.360;22.962;2022-08-18T04:21:03;26.70;99.90
25622;DHT22;13487;39.360;22.962;2022-08-18T04:23:29;26.80;99.90
25622;DHT22;13487;39.360;22.962;2022-08-18T04:25:56;26.90;99.90
25622;DHT22;13487;39.360;22.962;2022-08-18T04:28:23;26.90;99.90
25622;DHT22;13487;39.360;22.962;2022-08-18T04:30:49;26.90;99.90
25622;DHT22;13487;39.360;22.962;2022-08-18T04:33:14;27.40;99.90
25622;DHT22;13487;39.360;22.962;2022-08-18T04:35:40;27.90;99.90
25622;DHT22;13487;39.360;22.962;2022-08-18T04:38:06;28.40;99.90
25622;DHT22;13487;39.360;22.962;2022-08-18T04:40:32;29.50;99.90
25622;DHT22;13487;39.360;22.962;2022-08-18T04:42:59;30.20;99.90
25622;DHT22;13487;39.360;22.962;2022-08-18T04:45:26;30.70;99.90
25622;DHT22;13487;39.360;22.962;2022-08-18T04:47:52;31.30;99.90
25622;DHT22;13487;39.360;22.962;2022-08-18T04:50:18;31.70;99.90
25622;DHT22;13487;39.360;22.962;2022-08-18T04:52:44;32.20;99.90
25622;DHT22;13487;39.360;22.962;2022-08-18T04:55:29;32.60;99.90
25622;DHT22;13487;39.360;22.962;2022-08-18T04:57:55;32.70;99.90
25622;DHT22;13487;39.360;22.962;2022-08-18T05:00:22;33.00;99.90
25622;DHT22;13487;39.360;22.962;2022-08-18T05:02:48;33.10;99.90
25622;DHT22;13487;39.360;22.962;2022-08-18T05:05:14;33.40;99.90
25622;DHT22;13487;39.360;22.962;2022-08-18T05:07:44;33.60;99.90
25622;DHT22;13487;39.360;22.962;2022-08-18T05:10:11;32.90;99.90
25622;DHT22;13487;39.360;22.962;2022-08-18T05:12:38;33.50;99.90
25622;DHT22;13487;39.360;22.962;2022-08-18T05:15:08;33.90;99.90
25622;DHT22;13487;39.360;22.962;2022-08-18T05:17:36;34.30;99.90
25622;DHT22;13487;39.360;22.962;2022-08-18T05:20:06;34.90;99.90
25622;DHT22;13487;39.360;22.962;2022-08-18T05:22:37;34.80;99.90
25622;DHT22;13487;39.360;22.962;2022-08-18T05:25:04;35.20;99.90
25622;DHT22;13487;39.360;22.962;2022-08-18T05:27:31;35.50;99.90
25622;DHT22;13487;39.360;22.962;2022-08-18T05:29:57;35.90;99.90
25622;DHT22;13487;39.360;22.962;2022-08-18T05:32:23;35.90;99.90
25622;DHT22;13487;39.360;22.962;2022-08-18T05:34:49;36.30;99.90
25622;DHT22;13487;39.360;22.962;2022-08-18T05:40:36;36.10;99.90
25622;DHT22;13487;39.360;22.962;2022-08-18T05:43:04;36.80;99.90
25622;DHT22;13487;39.360;22.962;2022-08-18T05:45:30;36.20;99.90
25622;DHT22;13487;39.360;22.962;2022-08-18T05:47:59;36.40;99.90
25622;DHT22;13487;39.360;22.962;2022-08-18T05:50:27;36.50;99.90
25622;DHT22;13487;39.360;22.962;2022-08-18T05:53:00;36.40;99.90
25622;DHT22;13487;39.360;22.962;2022-08-18T05:58:50;35.50;99.90
25622;DHT22;13487;39.360;22.962;2022-08-18T06:01:28;35.80;99.90
25622;DHT22;13487;39.360;22.962;2022-08-18T06:04:03;35.80;99.90
25622;DHT22;13487;39.360;22.962;2022-08-18T06:11:33;34.90;99.90
25622;DHT22;13487;39.360;22.962;2022-08-18T06:30:22;33.00;99.90
25622;DHT22;13487;39.360;22.962;2022-08-18T06:41:14;31.90;99.90
25622;DHT22;13487;39.360;22.962;2022-08-18T06:49:04;31.70;99.90
25622;DHT22;13487;39.360;22.962;2022-08-18T06:51:32;31.90;99.90
25622;DHT22;13487;39.360;22.962;2022-08-18T06:54:01;32.20;99.90
